Portada
METAR-TAF:

METAR-TAF

Aeropuertos :

Base Aérea de Almagro

Almagro, España

latitud: 38-57-11N, longitud: 3-44-29W, altitud: 629 m

Observación

El informe se hizo hace 30 minutos, a las 14:00 UTC
Viento 7 kt del noreste, variando entre norte y este-sureste
Temperatura 15°C
Humedad 31%
Presión 1030 hPa
Visibilidad 10 km o más
sin nubes por debajo de 1500 m y sin presencia de cumulonimbus.

METAR: LEAO 031400Z 05007KT 010V110 CAVOK 15/M02 Q1030

Hora: 15:30 (14:30 UTC)

Pronóstico

El informe se hizo hace 6 horas y 30 minutos, a las 08:00 UTC
Pronóstico válido del 03 a las 09 UTC al 04 a las 09 UTC
Viento 4 kt con dirección variable
Visibilidad 10 km o más
sin nubes por debajo de 1500 m y sin presencia de cumulonimbus.

TAF: LEAO 030800Z 0309/0409 VRB04KT CAVOK TX16/0315Z TNM02/0407Z

Observaciones y pronósticos meteorológicos de más de 4000 aeropuertos (mensajes METAR y TAF).

Los puntos amarillos y rojos representan las estaciones disponibles.

Ponga el ratón en el punto deseado para ver el nombre de la estación.

Haga clic para ver las observaciones y los pronósticos meteorológicos.

Para cambiar el mapa : haga clic en los botones verdes con una cruz de color negro para hacer un zoom, en el botón verde con un guión para alejar o en las flechas verdes para mapas adyacentes.


METAR-TAF: